createdAt,value
2023-04-26T00:01:55.130Z,2.47
2023-04-26T00:04:21.842Z,2.58
2023-04-26T00:06:49.389Z,2.05
2023-04-26T00:09:16.393Z,1.90
2023-04-26T00:14:09.415Z,2.00
2023-04-26T00:16:36.086Z,2.47
2023-04-26T00:19:02.866Z,2.50
2023-04-26T00:21:29.373Z,2.30
2023-04-26T00:23:55.942Z,2.42
2023-04-26T00:26:22.693Z,2.40
2023-04-26T00:28:49.284Z,2.20
2023-04-26T00:31:16.662Z,2.25
2023-04-26T00:33:44.209Z,3.35
2023-04-26T00:36:10.979Z,2.72
2023-04-26T00:38:37.420Z,2.40
2023-04-26T00:41:03.910Z,1.60
2023-04-26T00:43:30.467Z,2.30
2023-04-26T00:45:57.110Z,2.13
2023-04-26T00:48:23.712Z,2.50
2023-04-26T00:50:50.491Z,2.33
2023-04-26T00:53:17.883Z,2.15
2023-04-26T00:55:44.920Z,2.17
2023-04-26T00:58:11.407Z,2.42
2023-04-26T01:00:37.966Z,2.38
2023-04-26T01:03:04.884Z,2.42
2023-04-26T01:05:31.522Z,2.10
2023-04-26T01:07:59.830Z,2.42
2023-04-26T01:10:27.572Z,1.95
2023-04-26T01:12:54.874Z,2.00
2023-04-26T01:15:27.872Z,2.30
2023-04-26T01:17:54.756Z,2.42
2023-04-26T01:20:24.296Z,2.20
2023-04-26T01:22:53.325Z,2.88
2023-04-26T01:25:22.397Z,2.58
2023-04-26T01:27:48.870Z,2.40
2023-04-26T01:30:15.344Z,1.83
2023-04-26T01:32:41.802Z,2.25
2023-04-26T01:35:08.708Z,2.20
2023-04-26T01:37:35.316Z,2.65
2023-04-26T01:40:01.791Z,2.28
2023-04-26T01:42:28.280Z,2.40
2023-04-26T01:44:54.783Z,3.45
2023-04-26T01:47:21.674Z,2.28
2023-04-26T01:49:48.375Z,2.55
2023-04-26T01:52:14.853Z,2.28
2023-04-26T01:54:41.281Z,2.75
2023-04-26T01:57:07.731Z,2.15
2023-04-26T01:59:34.231Z,2.65
2023-04-26T02:02:00.931Z,2.35
2023-04-26T02:04:28.269Z,1.90
2023-04-26T02:06:54.728Z,2.55
2023-04-26T02:09:21.171Z,2.30
2023-04-26T02:11:47.598Z,2.15
2023-04-26T02:14:14.148Z,2.22
2023-04-26T02:16:40.804Z,1.92
2023-04-26T02:19:10.942Z,2.30
2023-04-26T02:21:58.126Z,2.30
2023-04-26T02:24:26.121Z,2.20
2023-04-26T02:26:57.439Z,2.80
2023-04-26T02:29:42.264Z,2.85
2023-04-26T02:32:09.949Z,2.42
2023-04-26T02:34:36.580Z,2.40
2023-04-26T02:37:03.083Z,2.83
2023-04-26T02:39:29.698Z,2.50
2023-04-26T02:41:56.267Z,1.95
2023-04-26T02:44:22.764Z,2.67
2023-04-26T02:46:49.413Z,2.40
2023-04-26T02:49:16.563Z,2.25
2023-04-26T02:51:43.077Z,2.55
2023-04-26T02:54:09.544Z,2.42
2023-04-26T02:56:35.979Z,2.30
2023-04-26T02:59:02.475Z,2.70
2023-04-26T03:01:28.980Z,2.67
2023-04-26T03:03:55.867Z,2.85
2023-04-26T03:06:22.351Z,2.42
2023-04-26T03:08:48.784Z,2.70
2023-04-26T03:11:15.271Z,2.38
2023-04-26T03:13:41.814Z,2.77
2023-04-26T03:16:08.420Z,2.78
2023-04-26T03:18:34.873Z,2.70
2023-04-26T03:21:01.378Z,2.25
2023-04-26T03:23:28.730Z,2.80
2023-04-26T03:25:55.298Z,2.30
2023-04-26T03:28:21.742Z,2.70
2023-04-26T03:30:50.014Z,2.28
2023-04-26T03:33:16.877Z,3.05
2023-04-26T03:35:43.840Z,2.60
2023-04-26T03:38:10.330Z,2.15
2023-04-26T03:40:36.811Z,2.83
2023-04-26T03:43:03.380Z,2.53
2023-04-26T03:45:29.893Z,2.92
2023-04-26T03:47:56.814Z,2.40
2023-04-26T03:50:23.602Z,3.15
2023-04-26T03:52:50.115Z,2.83
2023-04-26T03:55:16.972Z,2.55
2023-04-26T03:57:43.382Z,1.90
2023-04-26T04:00:11.924Z,2.58
2023-04-26T04:02:38.431Z,2.58
2023-04-26T04:05:05.342Z,2.50
2023-04-26T04:07:32.924Z,2.53
2023-04-26T04:10:02.633Z,2.53
2023-04-26T04:12:29.167Z,2.53
2023-04-26T04:14:55.631Z,2.50
2023-04-26T04:17:22.182Z,2.90
2023-04-26T04:19:48.685Z,2.65
2023-04-26T04:22:15.395Z,2.10
2023-04-26T04:24:44.175Z,2.72
2023-04-26T04:27:11.533Z,2.20
2023-04-26T04:29:38.184Z,2.25
2023-04-26T04:32:05.141Z,2.67
2023-04-26T04:34:36.018Z,3.00
2023-04-26T04:37:02.758Z,2.17
2023-04-26T04:39:29.254Z,2.47
2023-04-26T04:41:55.777Z,2.83
2023-04-26T04:44:24.040Z,2.33
2023-04-26T04:46:50.562Z,1.90
2023-04-26T04:49:18.954Z,2.40
2023-04-26T04:51:45.621Z,3.55
2023-04-26T04:54:12.037Z,2.22
2023-04-26T04:56:38.768Z,2.30
2023-04-26T04:59:05.346Z,2.15
2023-04-26T05:01:38.743Z,2.80
2023-04-26T05:04:06.896Z,2.75
2023-04-26T05:06:33.650Z,2.45
2023-04-26T05:09:02.936Z,2.33
2023-04-26T05:11:29.362Z,3.08
2023-04-26T05:13:56.080Z,2.78
2023-04-26T05:16:22.857Z,3.10
2023-04-26T05:18:49.541Z,2.75
2023-04-26T05:21:16.405Z,2.75
2023-04-26T05:23:43.205Z,2.50
2023-04-26T05:26:15.335Z,2.55
2023-04-26T05:28:42.172Z,2.88
2023-04-26T05:31:11.409Z,2.88
2023-04-26T05:33:38.461Z,2.47
2023-04-26T05:36:05.377Z,2.78
2023-04-26T05:38:37.122Z,2.53
2023-04-26T05:41:03.956Z,2.70
2023-04-26T05:43:32.704Z,2.75
2023-04-26T05:45:59.299Z,2.90
2023-04-26T05:48:26.238Z,3.53
2023-04-26T05:50:52.869Z,4.10
2023-04-26T05:53:19.794Z,3.63
2023-04-26T05:55:46.664Z,2.95
2023-04-26T05:58:13.198Z,2.90
2023-04-26T06:00:39.946Z,3.10
2023-04-26T06:03:06.634Z,3.20
2023-04-26T06:05:33.416Z,3.38
2023-04-26T06:07:59.991Z,2.20
2023-04-26T06:10:26.603Z,2.63
2023-04-26T06:12:53.301Z,3.00
2023-04-26T06:15:19.846Z,3.60
2023-04-26T06:17:46.519Z,2.20
2023-04-26T06:20:13.045Z,2.60
2023-04-26T06:22:39.560Z,3.53
2023-04-26T06:25:07.304Z,2.80
2023-04-26T06:27:33.879Z,3.13
2023-04-26T06:30:02.909Z,2.92
2023-04-26T06:32:29.496Z,3.60
2023-04-26T06:34:56.140Z,3.00
2023-04-26T06:37:22.700Z,3.28
2023-04-26T06:39:49.249Z,3.22
2023-04-26T06:42:15.814Z,2.70
2023-04-26T06:44:42.301Z,2.90
2023-04-26T06:47:09.543Z,3.40
2023-04-26T06:49:36.366Z,2.90
2023-04-26T06:52:08.260Z,3.42
2023-04-26T06:54:39.886Z,2.75
2023-04-26T06:57:09.366Z,3.30
2023-04-26T06:59:35.904Z,3.15
2023-04-26T07:02:05.460Z,2.33
2023-04-26T07:04:35.428Z,3.08
2023-04-26T07:07:05.318Z,2.25
2023-04-26T07:09:34.727Z,2.58
2023-04-26T07:12:03.061Z,2.30
2023-04-26T07:14:29.527Z,2.42
2023-04-26T07:16:55.952Z,2.88
2023-04-26T07:19:23.316Z,3.00
2023-04-26T07:21:49.797Z,2.40
2023-04-26T07:24:16.410Z,2.72
2023-04-26T07:26:42.953Z,3.00
2023-04-26T07:29:09.455Z,3.08
2023-04-26T07:31:35.953Z,2.85
2023-04-26T07:34:03.310Z,2.60
2023-04-26T07:36:29.808Z,3.10
2023-04-26T07:38:56.329Z,3.03
2023-04-26T07:41:23.045Z,3.03
2023-04-26T07:43:49.978Z,2.72
2023-04-26T07:46:16.786Z,2.30
2023-04-26T07:48:43.328Z,2.80
2023-04-26T07:51:13.616Z,2.58
2023-04-26T07:53:41.105Z,2.65
2023-04-26T07:56:08.418Z,2.85
2023-04-26T07:58:36.136Z,2.60
2023-04-26T08:01:06.045Z,2.42
2023-04-26T08:03:36.528Z,2.35
2023-04-26T08:06:06.724Z,2.58
2023-04-26T08:08:45.570Z,2.28
2023-04-26T08:11:12.154Z,2.45
2023-04-26T08:13:38.710Z,2.13
2023-04-26T08:16:06.124Z,2.70
2023-04-26T08:18:35.462Z,4.20
2023-04-26T08:21:05.573Z,6.25
2023-04-26T08:23:36.567Z,5.45
2023-04-26T08:26:04.105Z,4.72
2023-04-26T08:28:33.339Z,5.05
2023-04-26T08:30:59.847Z,5.15
2023-04-26T08:33:26.585Z,2.88
2023-04-26T08:35:53.425Z,3.60
2023-04-26T08:38:22.437Z,5.28
2023-04-26T08:40:49.159Z,3.55
2023-04-26T08:43:19.215Z,3.95
2023-04-26T08:45:49.378Z,1.85
2023-04-26T08:48:18.213Z,3.50
2023-04-26T08:50:46.658Z,2.55
2023-04-26T08:53:20.300Z,3.25
2023-04-26T08:55:50.084Z,5.22
2023-04-26T08:58:19.849Z,2.63
2023-04-26T09:00:46.840Z,5.47
2023-04-26T09:03:13.704Z,4.93
2023-04-26T09:05:44.240Z,3.90
2023-04-26T09:08:16.149Z,4.07
2023-04-26T09:10:42.760Z,4.35
2023-04-26T09:13:09.413Z,3.78
2023-04-26T09:15:35.978Z,4.38
2023-04-26T09:18:22.163Z,4.72
2023-04-26T09:21:09.137Z,4.00
2023-04-26T09:23:36.007Z,4.03
2023-04-26T09:26:18.112Z,4.05
2023-04-26T09:28:46.474Z,4.00
2023-04-26T09:31:36.261Z,4.57
2023-04-26T09:34:06.600Z,4.25
2023-04-26T09:36:52.762Z,4.25
2023-04-26T09:39:40.531Z,4.43
2023-04-26T09:42:11.241Z,4.72
2023-04-26T09:44:38.227Z,4.10
2023-04-26T09:47:07.250Z,3.95
2023-04-26T09:49:48.840Z,4.13
2023-04-26T09:52:16.394Z,4.47
2023-04-26T09:54:51.755Z,3.63
2023-04-26T09:57:19.700Z,3.42
2023-04-26T09:59:48.588Z,3.60
2023-04-26T10:02:22.468Z,3.80
2023-04-26T10:04:54.889Z,3.90
2023-04-26T10:07:23.809Z,3.70
2023-04-26T10:09:51.219Z,3.60
2023-04-26T10:12:19.466Z,3.13
2023-04-26T10:14:47.176Z,3.50
2023-04-26T10:17:14.303Z,3.30
2023-04-26T10:19:46.422Z,3.15
2023-04-26T10:22:25.415Z,3.60
2023-04-26T10:24:54.138Z,3.20
2023-04-26T10:27:45.444Z,3.60
2023-04-26T10:30:14.048Z,3.22
2023-04-26T10:33:06.840Z,3.28
2023-04-26T10:35:38.102Z,3.35
2023-04-26T10:38:07.338Z,3.22
2023-04-26T10:40:40.869Z,3.13
2023-04-26T10:43:16.288Z,3.35
2023-04-26T10:45:44.525Z,3.17
2023-04-26T10:48:35.413Z,2.95
2023-04-26T10:51:09.119Z,2.90
2023-04-26T10:53:35.527Z,3.40
2023-04-26T10:56:05.243Z,3.20
2023-04-26T10:58:35.440Z,3.08
2023-04-26T11:01:04.880Z,2.92
2023-04-26T11:03:32.464Z,2.50
2023-04-26T11:05:59.038Z,2.88
2023-04-26T11:08:33.403Z,2.53
2023-04-26T11:11:12.564Z,2.53
2023-04-26T11:13:43.850Z,2.50
2023-04-26T11:16:17.505Z,2.95
2023-04-26T11:18:46.980Z,3.00
2023-04-26T11:21:17.655Z,2.60
2023-04-26T11:23:53.342Z,3.10
2023-04-26T11:26:19.831Z,2.65
2023-04-26T11:28:46.540Z,2.60
2023-04-26T11:31:14.500Z,2.90
2023-04-26T11:33:41.587Z,2.83
2023-04-26T11:36:08.342Z,2.70
2023-04-26T11:38:34.816Z,3.33
2023-04-26T11:41:03.591Z,2.95
2023-04-26T11:43:37.564Z,3.03
2023-04-26T11:46:05.829Z,3.10
2023-04-26T11:48:37.414Z,3.08
2023-04-26T11:51:05.480Z,3.20
2023-04-26T11:53:42.627Z,2.85
2023-04-26T11:56:16.297Z,2.83
2023-04-26T11:58:51.623Z,3.20
2023-04-26T12:01:28.454Z,3.83
2023-04-26T12:03:59.713Z,3.30
2023-04-26T12:06:32.896Z,3.30
2023-04-26T12:09:05.547Z,3.28
2023-04-26T12:11:35.121Z,2.97
2023-04-26T12:14:05.338Z,3.38
2023-04-26T12:16:32.019Z,3.30
2023-04-26T12:18:58.520Z,3.55
2023-04-26T12:21:27.448Z,3.40
2023-04-26T12:23:55.542Z,4.18
2023-04-26T12:26:22.025Z,3.60
2023-04-26T12:28:48.598Z,3.30
2023-04-26T12:31:15.157Z,3.75
2023-04-26T12:33:41.765Z,3.75
2023-04-26T12:36:12.374Z,3.35
2023-04-26T12:38:39.690Z,3.58
2023-04-26T12:41:06.285Z,3.53
2023-04-26T12:43:35.123Z,3.28
2023-04-26T12:46:01.692Z,3.15
2023-04-26T12:48:28.955Z,3.30
2023-04-26T12:50:55.907Z,3.60
2023-04-26T12:53:22.574Z,3.58
2023-04-26T12:55:49.142Z,3.65
2023-04-26T12:58:15.844Z,3.60
2023-04-26T13:00:44.455Z,3.38
2023-04-26T13:03:14.436Z,3.50
2023-04-26T13:05:41.509Z,3.20
2023-04-26T13:08:07.984Z,3.40
2023-04-26T13:10:37.708Z,3.40
2023-04-26T13:13:07.040Z,3.20
2023-04-26T13:15:35.504Z,3.20
2023-04-26T13:18:02.061Z,3.00
2023-04-26T13:20:30.785Z,3.35
2023-04-26T13:22:57.504Z,3.63
2023-04-26T13:25:23.979Z,3.67
2023-04-26T13:27:53.598Z,3.38
2023-04-26T13:30:20.409Z,3.40
2023-04-26T13:32:47.289Z,3.40
2023-04-26T13:35:14.075Z,3.25
2023-04-26T13:37:41.643Z,3.22
2023-04-26T13:40:11.237Z,3.70
2023-04-26T13:42:38.744Z,2.90
2023-04-26T13:45:14.471Z,3.17
2023-04-26T13:47:41.377Z,3.20
2023-04-26T13:50:08.180Z,3.25
2023-04-26T13:52:37.514Z,3.40
2023-04-26T13:55:07.941Z,3.20
2023-04-26T13:57:37.352Z,3.28
2023-04-26T14:00:08.114Z,2.97
2023-04-26T14:02:37.636Z,3.40
2023-04-26T14:05:05.809Z,3.22
2023-04-26T14:07:35.789Z,3.70
2023-04-26T14:10:04.695Z,3.45
2023-04-26T14:12:31.255Z,3.50
2023-04-26T14:14:57.828Z,3.20
2023-04-26T14:17:25.724Z,3.30
2023-04-26T14:19:54.112Z,3.05
2023-04-26T14:22:21.354Z,3.00
2023-04-26T14:24:47.955Z,3.53
2023-04-26T14:27:14.486Z,3.20
2023-04-26T14:29:41.047Z,3.10
2023-04-26T14:32:07.929Z,3.00
2023-04-26T14:34:39.218Z,2.67
2023-04-26T14:37:06.753Z,2.55
2023-04-26T14:39:37.526Z,2.63
2023-04-26T14:42:07.252Z,2.80
2023-04-26T14:44:39.980Z,2.60
2023-04-26T14:47:06.767Z,2.63
2023-04-26T14:49:35.543Z,2.92
2023-04-26T14:52:02.052Z,2.55
2023-04-26T14:54:28.547Z,2.70
2023-04-26T14:56:55.180Z,2.70
2023-04-26T14:59:21.803Z,2.42
2023-04-26T15:01:49.003Z,2.72
2023-04-26T15:04:15.762Z,2.95
2023-04-26T15:06:42.468Z,2.40
2023-04-26T15:09:09.245Z,2.55
2023-04-26T15:11:36.046Z,2.60
2023-04-26T15:14:04.618Z,2.65
2023-04-26T15:16:31.302Z,2.53
2023-04-26T15:18:57.768Z,3.67
2023-04-26T15:21:24.379Z,2.75
2023-04-26T15:23:51.529Z,2.72
2023-04-26T15:26:17.957Z,2.67
2023-04-26T15:28:44.544Z,2.63
2023-04-26T15:31:11.450Z,2.72
2023-04-26T15:33:38.036Z,3.00
2023-04-26T15:36:07.778Z,2.78
2023-04-26T15:38:36.128Z,2.90
2023-04-26T15:41:03.628Z,2.92
2023-04-26T15:43:30.325Z,2.30
2023-04-26T15:45:57.213Z,2.78
2023-04-26T15:48:23.771Z,2.80
2023-04-26T15:50:53.681Z,2.63
2023-04-26T15:53:21.834Z,2.60
2023-04-26T15:55:48.282Z,2.60
2023-04-26T15:58:14.811Z,2.50
2023-04-26T16:00:41.342Z,2.88
2023-04-26T16:03:07.991Z,2.40
2023-04-26T16:05:35.792Z,2.50
2023-04-26T16:08:06.108Z,2.60
2023-04-26T16:10:36.282Z,2.60
2023-04-26T16:13:07.082Z,2.50
2023-04-26T16:15:36.984Z,2.55
2023-04-26T16:18:06.118Z,2.85
2023-04-26T16:20:35.791Z,2.83
2023-04-26T16:23:02.287Z,3.35
2023-04-26T16:25:28.793Z,2.40
2023-04-26T16:27:55.306Z,2.70
2023-04-26T16:30:22.183Z,2.65
2023-04-26T16:32:48.632Z,2.80
2023-04-26T16:35:15.258Z,2.97
2023-04-26T16:37:41.810Z,3.35
2023-04-26T16:40:10.646Z,2.85
2023-04-26T16:42:37.182Z,3.10
2023-04-26T16:45:07.814Z,3.00
2023-04-26T16:47:37.056Z,3.10
2023-04-26T16:50:08.060Z,2.97
2023-04-26T16:52:37.668Z,2.90
2023-04-26T16:55:07.370Z,2.85
2023-04-26T16:57:36.562Z,2.65
2023-04-26T17:00:05.479Z,3.10
2023-04-26T17:02:32.081Z,3.22
2023-04-26T17:04:58.871Z,3.00
2023-04-26T17:07:25.411Z,3.20
2023-04-26T17:09:55.341Z,3.95
2023-04-26T17:12:22.283Z,2.90
2023-04-26T17:14:48.718Z,3.13
2023-04-26T17:17:15.237Z,2.92
2023-04-26T17:19:41.925Z,3.42
2023-04-26T17:22:12.623Z,3.15
2023-04-26T17:24:39.128Z,2.90
2023-04-26T17:27:08.184Z,3.00
2023-04-26T17:29:35.878Z,3.05
2023-04-26T17:32:04.317Z,2.75
2023-04-26T17:34:30.853Z,2.90
2023-04-26T17:36:57.389Z,3.10
2023-04-26T17:39:23.857Z,2.78
2023-04-26T17:41:51.342Z,2.80
2023-04-26T17:44:18.198Z,3.00
2023-04-26T17:46:44.662Z,3.05
2023-04-26T17:49:11.838Z,3.10
2023-04-26T17:51:38.418Z,3.47
2023-04-26T17:54:08.418Z,3.20
2023-04-26T17:56:37.838Z,3.90
2023-04-26T17:59:07.677Z,3.50
2023-04-26T18:01:37.700Z,3.50
2023-04-26T18:04:07.845Z,3.47
2023-04-26T18:06:38.072Z,3.80
2023-04-26T18:09:08.842Z,3.25
2023-04-26T18:11:35.489Z,3.80
2023-04-26T18:14:01.904Z,3.53
2023-04-26T18:16:28.908Z,3.70
2023-04-26T18:18:55.439Z,3.83
2023-04-26T18:21:23.073Z,3.75
2023-04-26T18:23:49.517Z,3.65
2023-04-26T18:26:16.042Z,3.80
2023-04-26T18:28:44.916Z,4.25
2023-04-26T18:31:11.979Z,4.18
2023-04-26T18:33:38.480Z,3.75
2023-04-26T18:36:06.600Z,3.85
2023-04-26T18:38:34.651Z,3.67
2023-04-26T18:41:01.248Z,3.63
2023-04-26T18:43:27.991Z,3.58
2023-04-26T18:45:55.484Z,3.47
2023-04-26T18:48:22.236Z,4.15
2023-04-26T18:50:52.919Z,4.28
2023-04-26T18:53:22.266Z,4.22
2023-04-26T18:55:48.995Z,4.13
2023-04-26T18:58:15.457Z,3.97
2023-04-26T19:00:41.923Z,3.60
2023-04-26T19:03:08.565Z,3.85
2023-04-26T19:05:37.333Z,3.83
2023-04-26T19:08:06.833Z,3.72
2023-04-26T19:10:33.744Z,3.38
2023-04-26T19:13:00.332Z,3.92
2023-04-26T19:15:27.157Z,3.72
2023-04-26T19:17:53.692Z,3.40
2023-04-26T19:20:20.418Z,3.22
2023-04-26T19:22:47.103Z,3.70
2023-04-26T19:25:14.773Z,4.00
2023-04-26T19:27:41.496Z,4.03
2023-04-26T19:30:08.544Z,3.80
2023-04-26T19:32:36.594Z,3.95
2023-04-26T19:35:06.272Z,3.92
2023-04-26T19:37:32.967Z,3.90
2023-04-26T19:39:59.441Z,3.65
2023-04-26T19:42:26.708Z,3.80
2023-04-26T19:44:53.526Z,4.10
2023-04-26T19:47:20.241Z,3.88
2023-04-26T19:49:47.884Z,4.05
2023-04-26T19:52:14.356Z,3.72
2023-04-26T19:54:40.965Z,3.67
2023-04-26T19:57:07.427Z,4.30
2023-04-26T19:59:36.106Z,3.85
2023-04-26T20:02:03.140Z,3.70
2023-04-26T20:04:29.670Z,3.53
2023-04-26T20:06:57.204Z,4.07
2023-04-26T20:09:23.640Z,4.00
2023-04-26T20:11:50.149Z,4.60
2023-04-26T20:14:16.600Z,3.78
2023-04-26T20:16:43.069Z,3.75
2023-04-26T20:19:10.186Z,4.00
2023-04-26T20:21:37.276Z,3.58
2023-04-26T20:24:06.360Z,3.90
2023-04-26T20:26:32.879Z,3.80
2023-04-26T20:28:59.451Z,3.65
2023-04-26T20:31:26.017Z,3.90
2023-04-26T20:33:53.535Z,3.83
2023-04-26T20:36:20.669Z,3.80
2023-04-26T20:38:47.400Z,3.80
2023-04-26T20:41:13.925Z,3.70
2023-04-26T20:43:40.410Z,3.80
2023-04-26T20:46:07.436Z,1.60
2023-04-26T20:48:33.926Z,3.08
2023-04-26T20:51:02.083Z,4.20
2023-04-26T20:53:28.716Z,2.45
2023-04-26T20:55:55.235Z,3.25
2023-04-26T20:58:21.723Z,2.38
2023-04-26T21:00:55.441Z,2.20
2023-04-26T21:03:22.904Z,2.55
2023-04-26T21:05:49.602Z,2.38
2023-04-26T21:08:16.215Z,1.88
2023-04-26T21:10:42.770Z,1.92
2023-04-26T21:13:09.378Z,1.73
2023-04-26T21:15:38.898Z,1.35
2023-04-26T21:18:07.058Z,2.15
2023-04-26T21:20:46.797Z,1.58
2023-04-26T21:23:13.419Z,2.33
2023-04-26T21:25:44.735Z,1.70
2023-04-26T21:28:11.345Z,1.60
2023-04-26T21:30:38.560Z,1.90
2023-04-26T21:33:07.895Z,1.98
2023-04-26T21:35:38.975Z,1.85
2023-04-26T21:38:07.897Z,1.67
2023-04-26T21:40:34.737Z,2.00
2023-04-26T21:43:05.319Z,1.60
2023-04-26T21:45:32.767Z,1.70
2023-04-26T21:47:59.726Z,1.52
2023-04-26T21:50:26.795Z,1.40
2023-04-26T21:52:53.581Z,1.27
2023-04-26T21:55:20.055Z,1.65
2023-04-26T21:57:46.594Z,1.98
2023-04-26T22:00:13.289Z,1.92
2023-04-26T22:02:39.850Z,1.67
2023-04-26T22:05:09.755Z,1.48
2023-04-26T22:07:36.297Z,1.92
2023-04-26T22:10:03.037Z,2.13
2023-04-26T22:12:29.506Z,2.50
2023-04-26T22:14:55.957Z,2.28
2023-04-26T22:17:22.475Z,2.28
2023-04-26T22:19:49.644Z,2.30
2023-04-26T22:22:16.602Z,1.92
2023-04-26T22:24:43.018Z,2.42
2023-04-26T22:27:12.678Z,2.17
2023-04-26T22:29:43.555Z,2.40
2023-04-26T22:32:13.672Z,2.33
2023-04-26T22:34:43.944Z,2.30
2023-04-26T22:37:21.078Z,2.10
2023-04-26T22:39:48.747Z,2.13
2023-04-26T22:42:15.284Z,2.63
2023-04-26T22:44:42.011Z,2.33
2023-04-26T22:47:08.635Z,2.70
2023-04-26T22:49:35.066Z,2.08
2023-04-26T22:52:07.662Z,2.35
2023-04-26T22:54:42.371Z,2.03
2023-04-26T22:57:08.889Z,2.42
2023-04-26T22:59:35.399Z,2.28
2023-04-26T23:02:02.098Z,2.60
2023-04-26T23:04:28.628Z,2.42
2023-04-26T23:06:55.153Z,2.75
2023-04-26T23:09:21.618Z,2.40
2023-04-26T23:11:48.290Z,2.38
2023-04-26T23:14:15.837Z,1.90
2023-04-26T23:16:45.868Z,2.53
2023-04-26T23:19:14.691Z,2.20
2023-04-26T23:21:41.848Z,2.50
2023-04-26T23:24:08.370Z,1.95
2023-04-26T23:26:34.864Z,2.10
2023-04-26T23:29:01.373Z,2.20
2023-04-26T23:31:27.880Z,2.60
2023-04-26T23:33:54.421Z,2.47
2023-04-26T23:36:20.941Z,2.50
2023-04-26T23:38:47.409Z,2.42
2023-04-26T23:41:17.128Z,2.50
2023-04-26T23:43:46.549Z,2.05
2023-04-26T23:46:15.579Z,2.50
2023-04-26T23:48:42.133Z,2.20
2023-04-26T23:51:08.598Z,2.13
2023-04-26T23:53:35.204Z,2.20
2023-04-26T23:56:01.735Z,2.33
2023-04-26T23:58:28.237Z,2.00
